Time;durP1;ratioP1;P1;durP2;ratioP2;P2;SDS_P1;SDS_P2;PMS_P1;PMS_P2;Temp;Humidity;BMP_temperature;BMP_pressure;BME280_temperature;BME280_humidity;BME280_pressure;Samples;Min_cycle;Max_cycle;Signal;HPM_P1;HPM_P2
2024/01/18 00:00:10;;;;;;;23.83;10.40;;;;;;;;;;4928364;29;20039;-58
2024/01/18 00:02:36;;;;;;;26.40;13.05;;;;;;;;;;4935979;29;20861;-57
2024/01/18 00:05:01;;;;;;;26.30;11.80;;;;;;;;;;4936814;29;20039;-58
2024/01/18 00:07:26;;;;;;;40.80;14.20;;;;;;;;;;4924971;29;20055;-57
2024/01/18 00:09:52;;;;;;;24.00;12.10;;;;;;;;;;4935467;29;20043;-57
2024/01/18 00:12:17;;;;;;;28.35;12.10;;;;;;;;;;4930804;29;20051;-56
2024/01/18 00:14:43;;;;;;;29.88;12.95;;;;;;;;;;4935956;29;20031;-59
2024/01/18 00:17:08;;;;;;;25.92;11.88;;;;;;;;;;4933582;29;20502;-56
2024/01/18 00:19:34;;;;;;;27.70;12.43;;;;;;;;;;4936515;29;20059;-58
2024/01/18 00:21:59;;;;;;;33.70;13.70;;;;;;;;;;4936489;29;20098;-58
2024/01/18 00:24:25;;;;;;;33.25;14.02;;;;;;;;;;4933422;29;20126;-58
2024/01/18 00:26:50;;;;;;;34.55;11.45;;;;;;;;;;4936776;29;20039;-57
2024/01/18 00:29:16;;;;;;;28.95;10.63;;;;;;;;;;4937303;29;20039;-58
2024/01/18 00:31:41;;;;;;;30.42;12.48;;;;;;;;;;4937446;29;20067;-58
2024/01/18 00:34:06;;;;;;;28.48;13.13;;;;;;;;;;4935624;29;20022;-56
2024/01/18 00:36:32;;;;;;;33.65;14.15;;;;;;;;;;4937709;29;20062;-56
2024/01/18 00:38:57;;;;;;;26.92;13.55;;;;;;;;;;4936359;29;20492;-57
2024/01/18 00:41:30;;;;;;;28.40;13.23;;;;;;;;;;4936623;29;20032;-56
2024/01/18 00:43:55;;;;;;;28.58;12.00;;;;;;;;;;4936077;29;20032;-58
2024/01/18 00:46:21;;;;;;;23.85;13.27;;;;;;;;;;4935970;29;20036;-57
2024/01/18 00:48:47;;;;;;;23.25;13.40;;;;;;;;;;4934656;29;20050;-58
2024/01/18 00:51:12;;;;;;;27.02;11.05;;;;;;;;;;4935485;29;20063;-54
2024/01/18 00:53:38;;;;;;;26.55;11.45;;;;;;;;;;4936154;29;20079;-58
2024/01/18 00:56:08;;;;;;;25.38;11.75;;;;;;;;;;4935713;29;20056;-59
2024/01/18 00:58:33;;;;;;;28.42;11.95;;;;;;;;;;4933913;29;20043;-56
2024/01/18 01:00:58;;;;;;;26.67;12.10;;;;;;;;;;4934258;29;20043;-58
2024/01/18 01:03:24;;;;;;;26.98;10.52;;;;;;;;;;4936132;29;20122;-56
2024/01/18 01:05:49;;;;;;;28.85;11.20;;;;;;;;;;4936684;29;20030;-58
2024/01/18 01:08:16;;;;;;;21.70;9.65;;;;;;;;;;4939449;29;20067;-57
2024/01/18 01:10:41;;;;;;;21.77;10.82;;;;;;;;;;4935283;29;20607;-59
2024/01/18 01:13:08;;;;;;;29.40;11.35;;;;;;;;;;4939568;29;20102;-58
2024/01/18 01:15:33;;;;;;;25.40;11.70;;;;;;;;;;4939259;29;20106;-57
2024/01/18 01:17:59;;;;;;;27.55;10.55;;;;;;;;;;4939185;29;20492;-60
2024/01/18 01:20:24;;;;;;;28.77;11.07;;;;;;;;;;4927252;29;20028;-58
2024/01/18 01:22:49;;;;;;;25.00;12.13;;;;;;;;;;4940204;29;20048;-58
2024/01/18 01:25:15;;;;;;;21.80;11.45;;;;;;;;;;4937037;29;20496;-56
2024/01/18 01:27:40;;;;;;;23.33;10.55;;;;;;;;;;4937883;29;20043;-59
2024/01/18 01:30:06;;;;;;;23.15;11.05;;;;;;;;;;4938438;29;20098;-58
2024/01/18 01:32:32;;;;;;;18.50;10.50;;;;;;;;;;4942244;28;20118;-55
2024/01/18 01:34:57;;;;;;;19.35;11.88;;;;;;;;;;4933989;29;20035;-58
2024/01/18 01:37:22;;;;;;;20.83;11.23;;;;;;;;;;4933849;29;20056;-56
2024/01/18 01:39:48;;;;;;;23.40;10.13;;;;;;;;;;4935884;29;20027;-56
2024/01/18 01:42:14;;;;;;;19.75;10.23;;;;;;;;;;4937214;29;20036;-58
2024/01/18 01:44:39;;;;;;;20.05;9.88;;;;;;;;;;4940490;29;20031;-58
2024/01/18 01:47:04;;;;;;;23.17;12.52;;;;;;;;;;4934160;29;20043;-58
2024/01/18 01:49:30;;;;;;;18.35;10.45;;;;;;;;;;4939893;29;20430;-57
2024/01/18 01:51:56;;;;;;;16.48;9.23;;;;;;;;;;4935076;29;20048;-58
2024/01/18 01:54:23;;;;;;;20.15;11.07;;;;;;;;;;4936627;29;20032;-58
2024/01/18 01:56:51;;;;;;;19.17;10.88;;;;;;;;;;4938783;29;20062;-57
2024/01/18 01:59:17;;;;;;;19.05;10.55;;;;;;;;;;4939951;29;20589;-58
2024/01/18 02:01:44;;;;;;;20.00;10.55;;;;;;;;;;4939321;29;20040;-56
2024/01/18 02:04:11;;;;;;;17.48;9.48;;;;;;;;;;4939442;29;20035;-58
2024/01/18 02:06:38;;;;;;;18.88;9.88;;;;;;;;;;4940067;29;20031;-57
2024/01/18 02:09:05;;;;;;;19.13;10.20;;;;;;;;;;4939552;29;20039;-56
2024/01/18 02:11:31;;;;;;;17.23;8.75;;;;;;;;;;4937619;29;20036;-57
2024/01/18 02:13:57;;;;;;;21.27;9.98;;;;;;;;;;4939753;29;20027;-56
2024/01/18 02:16:23;;;;;;;18.70;9.90;;;;;;;;;;4935909;29;20098;-55
2024/01/18 02:18:49;;;;;;;21.20;8.93;;;;;;;;;;4935261;29;20031;-54
2024/01/18 02:21:14;;;;;;;25.67;10.95;;;;;;;;;;4937416;29;20742;-57
2024/01/18 02:23:46;;;;;;;23.77;11.35;;;;;;;;;;4937690;29;20051;-57
2024/01/18 02:26:11;;;;;;;20.42;10.93;;;;;;;;;;4937811;29;20024;-56
2024/01/18 02:28:36;;;;;;;18.10;9.25;;;;;;;;;;4935531;29;20042;-58
2024/01/18 02:31:02;;;;;;;28.17;11.45;;;;;;;;;;4934885;29;20379;-57
2024/01/18 02:33:27;;;;;;;25.48;12.57;;;;;;;;;;4934427;29;20134;-58
2024/01/18 02:35:53;;;;;;;23.88;10.65;;;;;;;;;;4932912;29;20041;-58
2024/01/18 02:38:19;;;;;;;27.70;11.23;;;;;;;;;;4939266;29;20122;-57
2024/01/18 02:40:44;;;;;;;20.95;9.73;;;;;;;;;;4938002;29;20646;-59
2024/01/18 02:43:09;;;;;;;30.77;12.50;;;;;;;;;;4939129;29;20429;-57
2024/01/18 02:45:36;;;;;;;24.42;9.68;;;;;;;;;;4931029;29;20684;-58
2024/01/18 02:48:03;;;;;;;22.30;11.00;;;;;;;;;;4939800;29;20043;-57
2024/01/18 02:50:29;;;;;;;28.95;12.73;;;;;;;;;;4939092;29;20483;-57
2024/01/18 02:52:54;;;;;;;28.35;11.98;;;;;;;;;;4937596;29;20047;-58
2024/01/18 02:55:19;;;;;;;28.30;11.75;;;;;;;;;;4936985;29;20058;-57
2024/01/18 02:57:45;;;;;;;24.48;12.90;;;;;;;;;;4932405;29;20573;-58
2024/01/18 03:00:13;;;;;;;28.85;12.57;;;;;;;;;;4938060;29;20696;-56
2024/01/18 03:02:39;;;;;;;30.25;12.65;;;;;;;;;;4936281;29;20162;-57
2024/01/18 03:05:05;;;;;;;27.42;11.60;;;;;;;;;;4936238;29;20086;-56
2024/01/18 03:07:31;;;;;;;32.92;13.80;;;;;;;;;;4935632;29;20135;-56
2024/01/18 03:09:56;;;;;;;27.13;11.40;;;;;;;;;;4938211;29;20054;-59
2024/01/18 03:12:22;;;;;;;28.95;12.88;;;;;;;;;;4935873;29;20035;-57
2024/01/18 03:14:47;;;;;;;22.63;11.30;;;;;;;;;;4934080;29;20107;-57
2024/01/18 03:17:12;;;;;;;27.75;14.02;;;;;;;;;;4933644;29;20048;-58
2024/01/18 03:19:38;;;;;;;24.15;10.90;;;;;;;;;;4932764;29;20020;-56
2024/01/18 03:22:03;;;;;;;22.40;10.15;;;;;;;;;;4934498;29;20039;-57
2024/01/18 03:24:29;;;;;;;26.05;10.38;;;;;;;;;;4934835;29;20483;-55
2024/01/18 03:26:54;;;;;;;18.33;9.68;;;;;;;;;;4937634;29;20114;-56
2024/01/18 03:29:19;;;;;;;16.55;9.55;;;;;;;;;;4934755;29;20028;-58
2024/01/18 03:31:45;;;;;;;25.25;10.85;;;;;;;;;;4937192;29;20122;-58
2024/01/18 03:34:10;;;;;;;18.13;8.90;;;;;;;;;;4936761;29;20039;-56
2024/01/18 03:36:36;;;;;;;20.08;9.93;;;;;;;;;;4935912;29;20059;-56
2024/01/18 03:39:01;;;;;;;19.15;8.40;;;;;;;;;;4938417;29;20035;-57
2024/01/18 03:41:26;;;;;;;17.10;9.73;;;;;;;;;;4936214;29;20028;-58
2024/01/18 03:43:52;;;;;;;14.25;8.68;;;;;;;;;;4933289;29;20020;-58
2024/01/18 03:46:17;;;;;;;18.33;9.98;;;;;;;;;;4938784;29;20504;-56
2024/01/18 03:48:43;;;;;;;16.10;10.10;;;;;;;;;;4935403;29;20394;-55
2024/01/18 03:51:08;;;;;;;15.80;8.93;;;;;;;;;;4938975;29;20428;-56
2024/01/18 03:53:36;;;;;;;19.00;9.80;;;;;;;;;;4932359;29;20388;-58
2024/01/18 03:56:01;;;;;;;16.83;8.88;;;;;;;;;;4937210;29;20039;-56
2024/01/18 03:58:27;;;;;;;16.02;8.77;;;;;;;;;;4936912;29;20035;-57
2024/01/18 04:00:52;;;;;;;19.65;7.35;;;;;;;;;;4934487;29;20091;-58
2024/01/18 04:03:19;;;;;;;13.95;7.38;;;;;;;;;;4931479;29;20043;-56
2024/01/18 04:05:44;;;;;;;10.70;7.47;;;;;;;;;;4936574;29;20523;-57
2024/01/18 04:08:09;;;;;;;13.15;7.38;;;;;;;;;;4931302;29;20100;-57
2024/01/18 04:10:35;;;;;;;12.77;7.10;;;;;;;;;;4936140;29;20015;-58
2024/01/18 04:13:01;;;;;;;12.35;7.47;;;;;;;;;;4934090;29;20035;-58
2024/01/18 04:15:27;;;;;;;11.95;6.30;;;;;;;;;;4936624;29;20052;-57
2024/01/18 04:17:52;;;;;;;12.07;6.10;;;;;;;;;;4936426;29;20074;-57
2024/01/18 04:20:21;;;;;;;11.82;6.07;;;;;;;;;;4937280;29;20027;-56
2024/01/18 04:22:47;;;;;;;;;;;;;;;;;;4934153;29;20126;-57
2024/01/18 04:25:12;;;;;;;11.73;7.03;;;;;;;;;;4933100;29;19945;-58
2024/01/18 04:27:38;;;;;;;9.38;5.93;;;;;;;;;;4934519;29;20418;-58
2024/01/18 04:30:04;;;;;;;9.35;6.22;;;;;;;;;;4936240;29;20026;-59
2024/01/18 04:32:30;;;;;;;11.82;6.57;;;;;;;;;;4931873;29;20035;-58
2024/01/18 04:34:55;;;;;;;9.13;5.03;;;;;;;;;;4934348;29;20422;-58
2024/01/18 04:37:21;;;;;;;11.25;6.53;;;;;;;;;;4935997;29;20043;-57
2024/01/18 04:39:46;;;;;;;9.60;6.53;;;;;;;;;;4935100;29;20024;-58
2024/01/18 04:42:11;;;;;;;10.25;5.28;;;;;;;;;;4934062;29;20040;-57
2024/01/18 04:44:38;;;;;;;11.18;6.63;;;;;;;;;;4935683;29;20031;-57
2024/01/18 04:47:04;;;;;;;9.25;6.40;;;;;;;;;;4925442;29;20074;-59
2024/01/18 04:49:29;;;;;;;10.80;7.63;;;;;;;;;;4939311;29;20036;-58
2024/01/18 04:51:54;;;;;;;15.35;7.72;;;;;;;;;;4928660;29;20419;-59
2024/01/18 04:54:20;;;;;;;12.57;7.68;;;;;;;;;;4937918;29;20610;-58
2024/01/18 04:56:45;;;;;;;12.20;6.90;;;;;;;;;;4935513;29;20039;-58
2024/01/18 04:59:11;;;;;;;9.45;6.60;;;;;;;;;;4935051;29;20043;-58
2024/01/18 05:01:39;;;;;;;10.25;5.97;;;;;;;;;;4936781;29;20028;-59
2024/01/18 05:04:05;;;;;;;13.02;6.78;;;;;;;;;;4937689;29;20028;-57
2024/01/18 05:06:30;;;;;;;11.40;6.60;;;;;;;;;;4934155;29;20493;-59
2024/01/18 05:08:56;;;;;;;9.70;6.47;;;;;;;;;;4937066;29;20016;-58
2024/01/18 05:11:21;;;;;;;11.15;7.50;;;;;;;;;;4935434;29;20055;-48
2024/01/18 05:13:46;;;;;;;13.00;6.60;;;;;;;;;;4932815;29;20062;-57
2024/01/18 05:16:12;;;;;;;11.13;6.82;;;;;;;;;;4937064;29;20059;-58
2024/01/18 05:18:37;;;;;;;10.30;7.13;;;;;;;;;;4936106;29;20042;-57
2024/01/18 05:21:03;;;;;;;11.15;6.47;;;;;;;;;;4937460;29;20024;-58
2024/01/18 05:23:28;;;;;;;11.00;7.10;;;;;;;;;;4928854;29;20055;-57
2024/01/18 05:25:54;;;;;;;9.13;6.90;;;;;;;;;;4930840;29;20036;-57
2024/01/18 05:28:19;;;;;;;11.90;6.10;;;;;;;;;;4933987;29;20047;-58
2024/01/18 05:30:45;;;;;;;19.80;10.68;;;;;;;;;;4936411;29;20039;-59
2024/01/18 05:33:10;;;;;;;13.43;8.60;;;;;;;;;;4935834;29;20039;-59
2024/01/18 05:35:36;;;;;;;10.35;7.22;;;;;;;;;;4937691;29;20035;-57
2024/01/18 05:38:01;;;;;;;12.05;7.78;;;;;;;;;;4931990;29;20051;-58
2024/01/18 05:40:26;;;;;;;14.25;8.43;;;;;;;;;;4936347;29;20047;-59
2024/01/18 05:42:52;;;;;;;10.15;7.43;;;;;;;;;;4934484;29;20044;-59
2024/01/18 05:45:17;;;;;;;11.73;8.70;;;;;;;;;;4934030;29;20035;-56
2024/01/18 05:47:43;;;;;;;18.60;10.18;;;;;;;;;;4928476;29;20110;-59
2024/01/18 05:50:09;;;;;;;17.95;9.68;;;;;;;;;;4936905;29;20055;-56
2024/01/18 05:52:34;;;;;;;16.45;10.38;;;;;;;;;;4937533;29;20047;-59
2024/01/18 05:55:00;;;;;;;12.82;10.10;;;;;;;;;;4937766;29;20036;-58
2024/01/18 05:57:25;;;;;;;14.23;8.98;;;;;;;;;;4937462;29;20048;-57
2024/01/18 05:59:51;;;;;;;14.68;9.73;;;;;;;;;;4937193;29;20067;-56
2024/01/18 06:02:16;;;;;;;15.60;9.27;;;;;;;;;;4937679;29;20569;-54
2024/01/18 06:04:42;;;;;;;14.02;8.70;;;;;;;;;;4935550;29;20031;-52
2024/01/18 06:07:07;;;;;;;13.07;7.10;;;;;;;;;;4938822;29;20091;-56
2024/01/18 06:09:32;;;;;;;12.13;8.93;;;;;;;;;;4936348;29;20065;-51
2024/01/18 06:11:58;;;;;;;10.27;6.55;;;;;;;;;;4933393;29;20044;-56
2024/01/18 06:14:23;;;;;;;12.07;7.53;;;;;;;;;;4933009;29;20024;-54
2024/01/18 06:16:48;;;;;;;11.02;7.25;;;;;;;;;;4931534;29;20134;-56
2024/01/18 06:19:14;;;;;;;9.57;7.65;;;;;;;;;;4932353;29;20028;-57
2024/01/18 06:21:41;;;;;;;9.75;7.20;;;;;;;;;;4929101;29;20055;-53
2024/01/18 06:24:07;;;;;;;10.50;6.32;;;;;;;;;;4936994;29;20039;-56
2024/01/18 06:26:32;;;;;;;10.60;6.20;;;;;;;;;;4935572;29;20053;-54
2024/01/18 06:28:58;;;;;;;10.77;7.22;;;;;;;;;;4933627;29;20020;-55
2024/01/18 06:31:26;;;;;;;12.57;7.80;;;;;;;;;;4933615;29;20039;-57
2024/01/18 06:33:56;;;;;;;10.02;8.40;;;;;;;;;;4938760;29;20039;-54
2024/01/18 06:36:22;;;;;;;8.63;6.13;;;;;;;;;;4934519;29;20039;-43
2024/01/18 06:38:49;;;;;;;8.48;5.88;;;;;;;;;;4936798;29;20032;-55
2024/01/18 06:41:15;;;;;;;7.60;5.30;;;;;;;;;;4938590;29;20038;-53
2024/01/18 06:43:40;;;;;;;10.35;7.13;;;;;;;;;;4947112;28;20123;-57
2024/01/18 06:46:16;;;;;;;6.90;5.45;;;;;;;;;;4938348;29;20022;-57
2024/01/18 06:48:42;;;;;;;8.65;6.82;;;;;;;;;;4936498;28;20149;-55
2024/01/18 06:51:08;;;;;;;13.70;6.22;;;;;;;;;;4938040;29;20035;-56
2024/01/18 06:53:33;;;;;;;10.85;5.93;;;;;;;;;;4932205;29;20063;-55
2024/01/18 06:55:59;;;;;;;11.05;6.53;;;;;;;;;;4936531;29;20852;-56
2024/01/18 06:58:24;;;;;;;10.27;6.70;;;;;;;;;;4935498;29;20467;-57
2024/01/18 07:00:50;;;;;;;9.73;5.85;;;;;;;;;;4936859;29;20386;-57
2024/01/18 07:03:15;;;;;;;10.10;6.13;;;;;;;;;;4937063;29;20058;-57
2024/01/18 07:05:41;;;;;;;11.25;6.88;;;;;;;;;;4935408;29;20059;-57
2024/01/18 07:08:07;;;;;;;10.60;7.22;;;;;;;;;;4937317;29;20038;-59
2024/01/18 07:10:32;;;;;;;12.38;9.57;;;;;;;;;;4937379;29;20054;-55
2024/01/18 07:12:58;;;;;;;7.53;6.63;;;;;;;;;;4942470;28;20456;-59
2024/01/18 07:15:23;;;;;;;8.52;6.00;;;;;;;;;;4935728;29;20047;-57
2024/01/18 07:17:48;;;;;;;10.82;6.10;;;;;;;;;;4936412;29;20048;-55
2024/01/18 07:20:14;;;;;;;7.25;4.75;;;;;;;;;;4929556;29;20123;-55
2024/01/18 07:22:39;;;;;;;6.43;4.60;;;;;;;;;;4930922;29;20043;-55
2024/01/18 07:25:05;;;;;;;7.80;5.47;;;;;;;;;;4933327;29;20024;-58
2024/01/18 07:27:31;;;;;;;8.45;5.63;;;;;;;;;;4937221;29;20388;-51
2024/01/18 07:29:57;;;;;;;6.45;4.35;;;;;;;;;;4931883;29;20034;-54
2024/01/18 07:32:23;;;;;;;7.50;4.82;;;;;;;;;;4934755;29;20593;-52
2024/01/18 07:34:48;;;;;;;5.80;4.40;;;;;;;;;;4932967;29;20035;-54
2024/01/18 07:37:14;;;;;;;8.98;6.07;;;;;;;;;;4939266;28;20051;-53
2024/01/18 07:39:42;;;;;;;8.38;5.97;;;;;;;;;;4933909;29;20047;-55
2024/01/18 07:42:08;;;;;;;7.35;5.40;;;;;;;;;;4933588;29;20269;-56
2024/01/18 07:44:34;;;;;;;6.18;4.90;;;;;;;;;;4934580;29;20055;-56
2024/01/18 07:47:00;;;;;;;7.43;4.75;;;;;;;;;;4927745;29;20786;-53
2024/01/18 07:49:25;;;;;;;6.70;4.28;;;;;;;;;;4937670;29;20501;-55
2024/01/18 07:51:51;;;;;;;9.75;7.80;;;;;;;;;;4936176;29;20043;-54
2024/01/18 07:54:16;;;;;;;8.82;7.93;;;;;;;;;;4935150;29;20040;-55
2024/01/18 07:56:42;;;;;;;12.57;9.27;;;;;;;;;;4935133;29;20072;-55
2024/01/18 07:59:07;;;;;;;10.63;9.30;;;;;;;;;;4937663;29;20103;-57
2024/01/18 08:01:33;;;;;;;10.10;8.45;;;;;;;;;;4934867;29;20035;-51
2024/01/18 08:03:59;;;;;;;9.02;5.32;;;;;;;;;;4937499;29;20048;-57
2024/01/18 08:06:25;;;;;;;6.68;5.32;;;;;;;;;;4937103;29;20059;-55
2024/01/18 08:08:50;;;;;;;8.98;6.18;;;;;;;;;;4936829;29;20019;-54
2024/01/18 08:11:15;;;;;;;5.88;4.35;;;;;;;;;;4935838;29;20037;-54
2024/01/18 08:13:41;;;;;;;4.70;4.25;;;;;;;;;;4936022;29;20066;-56
2024/01/18 08:16:07;;;;;;;5.07;3.78;;;;;;;;;;4935269;29;20048;-55
2024/01/18 08:18:32;;;;;;;6.30;5.13;;;;;;;;;;4935025;29;20919;-55
2024/01/18 08:20:58;;;;;;;5.88;4.78;;;;;;;;;;4934163;29;20179;-57
2024/01/18 08:23:23;;;;;;;7.68;5.15;;;;;;;;;;4935751;29;20160;-57
2024/01/18 08:25:50;;;;;;;10.85;5.55;;;;;;;;;;4937001;29;20032;-55
2024/01/18 08:28:15;;;;;;;5.35;4.65;;;;;;;;;;4932043;29;20079;-53
2024/01/18 08:30:41;;;;;;;6.65;5.85;;;;;;;;;;4937333;29;20553;-55
2024/01/18 08:33:08;;;;;;;7.78;5.53;;;;;;;;;;4935793;29;20569;-54
2024/01/18 08:35:34;;;;;;;7.85;6.15;;;;;;;;;;4935928;29;20049;-57
2024/01/18 08:38:00;;;;;;;5.30;4.75;;;;;;;;;;4935375;29;20073;-54
2024/01/18 08:40:25;;;;;;;7.88;5.55;;;;;;;;;;4933070;29;20466;-56
2024/01/18 08:42:51;;;;;;;6.97;6.05;;;;;;;;;;4935935;29;20047;-56
2024/01/18 08:45:18;;;;;;;5.07;4.45;;;;;;;;;;4934759;29;20078;-56
2024/01/18 08:47:43;;;;;;;8.02;6.35;;;;;;;;;;4932980;29;20042;-54
2024/01/18 08:50:09;;;;;;;9.73;7.13;;;;;;;;;;4936796;29;20032;-56
2024/01/18 08:52:34;;;;;;;9.68;6.85;;;;;;;;;;4935991;29;20040;-52
2024/01/18 08:54:59;;;;;;;7.70;5.90;;;;;;;;;;4935940;29;20024;-55
2024/01/18 08:57:28;;;;;;;6.80;5.18;;;;;;;;;;4934353;29;20043;-57
2024/01/18 08:59:53;;;;;;;9.10;5.30;;;;;;;;;;4933355;29;20099;-57
2024/01/18 09:02:19;;;;;;;6.90;4.95;;;;;;;;;;4934471;29;20067;-56
2024/01/18 09:04:44;;;;;;;15.57;6.80;;;;;;;;;;4933961;29;20053;-58
2024/01/18 09:07:09;;;;;;;7.30;6.57;;;;;;;;;;4927994;29;20964;-55
2024/01/18 09:09:35;;;;;;;8.00;5.20;;;;;;;;;;4929988;29;20051;-55
2024/01/18 09:12:00;;;;;;;8.90;4.75;;;;;;;;;;4930912;29;20050;-54
2024/01/18 09:14:25;;;;;;;6.45;5.57;;;;;;;;;;4936559;29;20028;-57
2024/01/18 09:16:51;;;;;;;6.85;5.32;;;;;;;;;;4936232;29;20130;-53
2024/01/18 09:19:16;;;;;;;7.32;5.68;;;;;;;;;;4933561;29;20067;-57
2024/01/18 09:21:44;;;;;;;8.88;5.10;;;;;;;;;;4935190;29;20035;-58
2024/01/18 09:24:10;;;;;;;6.43;4.75;;;;;;;;;;4928112;29;20039;-57
2024/01/18 09:26:35;;;;;;;6.53;4.38;;;;;;;;;;4928790;29;20036;-58
2024/01/18 09:29:02;;;;;;;6.13;5.50;;;;;;;;;;4939165;29;20026;-54
2024/01/18 09:31:28;;;;;;;6.30;4.50;;;;;;;;;;4937711;29;20028;-55
2024/01/18 09:33:53;;;;;;;7.30;4.75;;;;;;;;;;4940883;29;20038;-56
2024/01/18 09:36:19;;;;;;;6.18;4.65;;;;;;;;;;4938753;29;20039;-51
2024/01/18 09:38:44;;;;;;;6.22;4.68;;;;;;;;;;4934484;29;20028;-53
2024/01/18 09:41:10;;;;;;;6.68;4.47;;;;;;;;;;4937348;29;20050;-54
2024/01/18 09:43:38;;;;;;;5.97;5.38;;;;;;;;;;4938837;29;20106;-57
2024/01/18 09:46:08;;;;;;;9.02;5.40;;;;;;;;;;4937016;29;20462;-56
2024/01/18 09:48:37;;;;;;;5.97;4.97;;;;;;;;;;4935085;29;20087;-58
2024/01/18 09:51:06;;;;;;;11.00;5.55;;;;;;;;;;4938314;29;20023;-57
2024/01/18 09:53:32;;;;;;;8.75;6.28;;;;;;;;;;4935589;29;20050;-56
2024/01/18 09:56:17;;;;;;;7.28;4.55;;;;;;;;;;4940136;29;20023;-55
2024/01/18 09:58:43;;;;;;;6.88;5.15;;;;;;;;;;4936807;29;20055;-57
2024/01/18 10:01:18;;;;;;;8.32;5.40;;;;;;;;;;4938140;29;20028;-58
2024/01/18 10:03:44;;;;;;;7.20;5.30;;;;;;;;;;4936573;29;20070;-58
2024/01/18 10:06:09;;;;;;;6.72;4.82;;;;;;;;;;4935824;29;20035;-56
2024/01/18 10:08:34;;;;;;;6.75;3.75;;;;;;;;;;4938256;29;20127;-55
2024/01/18 10:11:00;;;;;;;5.03;3.42;;;;;;;;;;4937707;29;20034;-58
2024/01/18 10:13:26;;;;;;;7.68;3.83;;;;;;;;;;4936965;29;20044;-58
2024/01/18 10:15:52;;;;;;;5.63;3.83;;;;;;;;;;4939068;29;20039;-57
2024/01/18 10:18:18;;;;;;;7.15;3.80;;;;;;;;;;4934993;29;20618;-58
2024/01/18 10:20:45;;;;;;;5.38;3.97;;;;;;;;;;4933600;29;20562;-56
2024/01/18 10:23:10;;;;;;;5.20;4.00;;;;;;;;;;4936238;29;20486;-55
2024/01/18 10:25:36;;;;;;;5.43;4.00;;;;;;;;;;4937578;29;20044;-58
2024/01/18 10:28:02;;;;;;;5.75;4.40;;;;;;;;;;4936934;29;20036;-56
2024/01/18 10:30:28;;;;;;;7.13;4.88;;;;;;;;;;4937449;29;20024;-58
2024/01/18 10:32:54;;;;;;;9.57;7.82;;;;;;;;;;4937755;29;20407;-54
2024/01/18 10:35:24;;;;;;;8.65;7.22;;;;;;;;;;4934885;29;20103;-56
2024/01/18 10:38:06;;;;;;;7.03;5.75;;;;;;;;;;4937523;29;20122;-56
2024/01/18 10:40:38;;;;;;;13.02;10.80;;;;;;;;;;4928089;29;20024;-56
2024/01/18 10:43:05;;;;;;;9.43;8.30;;;;;;;;;;4929362;29;20107;-56
2024/01/18 10:45:33;;;;;;;7.25;5.88;;;;;;;;;;4931718;29;20541;-57
2024/01/18 10:47:59;;;;;;;6.57;4.88;;;;;;;;;;4929518;29;20082;-55
2024/01/18 10:50:26;;;;;;;6.40;4.57;;;;;;;;;;4935407;29;20032;-58
2024/01/18 10:52:52;;;;;;;5.97;4.03;;;;;;;;;;4938924;29;20043;-56
2024/01/18 10:55:18;;;;;;;7.03;4.85;;;;;;;;;;4937256;29;20035;-56
2024/01/18 10:57:44;;;;;;;5.72;4.93;;;;;;;;;;4938533;29;20406;-57
2024/01/18 11:00:16;;;;;;;8.70;7.55;;;;;;;;;;4937684;29;20122;-57
2024/01/18 11:02:44;;;;;;;8.80;8.00;;;;;;;;;;4936130;29;20048;-57
2024/01/18 11:05:12;;;;;;;8.10;6.80;;;;;;;;;;4929829;29;20030;-53
2024/01/18 11:07:39;;;;;;;6.07;4.75;;;;;;;;;;4932379;29;20040;-56
2024/01/18 11:10:12;;;;;;;6.32;4.00;;;;;;;;;;4934640;29;20123;-58
2024/01/18 11:12:49;;;;;;;6.18;3.30;;;;;;;;;;4932721;29;20048;-56
2024/01/18 11:15:16;;;;;;;6.00;3.97;;;;;;;;;;4928313;29;20051;-58
2024/01/18 11:17:45;;;;;;;6.13;4.53;;;;;;;;;;4934529;29;20598;-57
2024/01/18 11:20:11;;;;;;;6.90;4.38;;;;;;;;;;4938156;29;20039;-57
2024/01/18 11:22:38;;;;;;;6.57;5.45;;;;;;;;;;4934559;29;20138;-58
2024/01/18 11:25:09;;;;;;;8.95;5.80;;;;;;;;;;4932326;29;20113;-56
2024/01/18 11:27:39;;;;;;;5.88;4.47;;;;;;;;;;4934931;29;20035;-56
2024/01/18 11:30:11;;;;;;;8.90;5.70;;;;;;;;;;4937699;29;20102;-57
2024/01/18 11:32:38;;;;;;;8.93;5.97;;;;;;;;;;4936342;29;20561;-57
2024/01/18 11:35:11;;;;;;;9.23;6.07;;;;;;;;;;4935839;29;20068;-57
2024/01/18 11:37:38;;;;;;;10.02;5.82;;;;;;;;;;4934480;29;20534;-58
2024/01/18 11:40:06;;;;;;;6.45;5.28;;;;;;;;;;4932758;29;20470;-58
2024/01/18 11:42:33;;;;;;;8.10;3.88;;;;;;;;;;4934099;29;20040;-57
2024/01/18 11:45:07;;;;;;;8.35;5.38;;;;;;;;;;4935610;29;20031;-57
2024/01/18 11:47:35;;;;;;;9.93;5.20;;;;;;;;;;4932940;29;20451;-57
2024/01/18 11:50:05;;;;;;;6.90;5.18;;;;;;;;;;4935870;29;20034;-57
2024/01/18 11:52:32;;;;;;;12.73;7.55;;;;;;;;;;4937078;29;20372;-58
2024/01/18 11:54:59;;;;;;;8.52;6.25;;;;;;;;;;4933751;29;20059;-56
2024/01/18 11:57:25;;;;;;;12.38;7.22;;;;;;;;;;4933265;29;20048;-57
2024/01/18 11:59:52;;;;;;;10.77;7.30;;;;;;;;;;4933517;29;20042;-58
2024/01/18 12:02:18;;;;;;;10.93;8.00;;;;;;;;;;4934742;29;20119;-58
2024/01/18 12:04:43;;;;;;;9.10;6.28;;;;;;;;;;4934053;29;20066;-57
2024/01/18 12:07:10;;;;;;;10.40;6.93;;;;;;;;;;4934350;29;20046;-58
2024/01/18 12:09:36;;;;;;;11.77;8.80;;;;;;;;;;4930751;29;20486;-57
2024/01/18 12:12:04;;;;;;;18.33;11.57;;;;;;;;;;4933519;29;20043;-54
2024/01/18 12:14:31;;;;;;;20.55;14.18;;;;;;;;;;4937708;29;20115;-56
2024/01/18 12:16:56;;;;;;;11.85;7.35;;;;;;;;;;4936669;29;20047;-57
2024/01/18 12:19:32;;;;;;;10.70;6.85;;;;;;;;;;4930180;29;20056;-58
2024/01/18 12:22:01;;;;;;;10.13;8.23;;;;;;;;;;4933901;29;20048;-58
2024/01/18 12:24:26;;;;;;;8.90;6.28;;;;;;;;;;4933821;29;20035;-59
2024/01/18 12:26:52;;;;;;;8.23;6.65;;;;;;;;;;4937393;29;20397;-56
2024/01/18 12:29:19;;;;;;;10.63;6.35;;;;;;;;;;4931114;29;20028;-56
2024/01/18 12:31:47;;;;;;;7.57;5.50;;;;;;;;;;4936908;29;20505;-58
2024/01/18 12:34:13;;;;;;;9.20;5.65;;;;;;;;;;4927792;29;20024;-55
2024/01/18 12:36:39;;;;;;;8.35;5.55;;;;;;;;;;4931918;29;20031;-56
2024/01/18 12:39:05;;;;;;;6.93;4.93;;;;;;;;;;4935523;29;20066;-57
2024/01/18 12:41:31;;;;;;;7.43;5.05;;;;;;;;;;4931840;29;20031;-56
2024/01/18 12:44:04;;;;;;;8.07;4.63;;;;;;;;;;4934530;29;20027;-57
2024/01/18 12:46:29;;;;;;;9.05;5.45;;;;;;;;;;4935307;29;20038;-56
2024/01/18 12:48:55;;;;;;;7.05;6.45;;;;;;;;;;4934883;29;20390;-56
2024/01/18 12:51:21;;;;;;;9.32;5.97;;;;;;;;;;4936229;29;20502;-56
2024/01/18 12:53:47;;;;;;;7.50;6.00;;;;;;;;;;4933681;29;20044;-59
2024/01/18 12:56:15;;;;;;;9.18;4.95;;;;;;;;;;4930056;29;20066;-57
2024/01/18 12:58:41;;;;;;;9.05;5.57;;;;;;;;;;4935752;29;20142;-59
2024/01/18 13:01:06;;;;;;;8.88;5.10;;;;;;;;;;4932633;29;20100;-57
2024/01/18 13:03:32;;;;;;;8.68;4.15;;;;;;;;;;4941832;29;20046;-57
2024/01/18 13:05:57;;;;;;;6.43;3.95;;;;;;;;;;4935681;29;20055;-57
2024/01/18 13:08:23;;;;;;;8.68;5.43;;;;;;;;;;4942136;29;20040;-59
2024/01/18 13:10:48;;;;;;;7.40;4.20;;;;;;;;;;4942001;29;20031;-57
2024/01/18 13:13:15;;;;;;;4.50;3.40;;;;;;;;;;4937764;29;20383;-59
2024/01/18 13:15:40;;;;;;;8.70;2.85;;;;;;;;;;4939584;29;20052;-57
2024/01/18 13:18:09;;;;;;;4.18;3.05;;;;;;;;;;4942720;29;20450;-59
2024/01/18 13:20:36;;;;;;;6.13;2.85;;;;;;;;;;4935647;29;20024;-58
2024/01/18 13:23:02;;;;;;;6.72;3.83;;;;;;;;;;4935537;29;20126;-58
2024/01/18 13:25:27;;;;;;;8.23;4.85;;;;;;;;;;4942649;29;20054;-57
2024/01/18 13:27:53;;;;;;;8.23;5.55;;;;;;;;;;4941613;29;20050;-59
2024/01/18 13:30:18;;;;;;;6.18;3.88;;;;;;;;;;4943506;29;20024;-57
2024/01/18 13:32:43;;;;;;;8.70;5.07;;;;;;;;;;4941455;29;20082;-58
2024/01/18 13:35:09;;;;;;;5.10;3.78;;;;;;;;;;4938426;29;20027;-59
2024/01/18 13:37:34;;;;;;;6.82;3.70;;;;;;;;;;4934239;29;20040;-59
2024/01/18 13:40:01;;;;;;;7.47;3.92;;;;;;;;;;4941247;29;20032;-58
2024/01/18 13:42:26;;;;;;;6.78;3.78;;;;;;;;;;4934439;29;20051;-60
2024/01/18 13:44:52;;;;;;;4.47;2.70;;;;;;;;;;4938944;29;20038;-58
2024/01/18 13:47:17;;;;;;;6.75;3.67;;;;;;;;;;4940861;29;20031;-59
2024/01/18 13:49:43;;;;;;;5.35;3.17;;;;;;;;;;4938959;29;20110;-58
2024/01/18 13:52:08;;;;;;;5.78;3.70;;;;;;;;;;4938956;29;20130;-59
2024/01/18 13:54:34;;;;;;;5.93;3.72;;;;;;;;;;4934897;29;20546;-59
2024/01/18 13:56:59;;;;;;;6.57;3.25;;;;;;;;;;4941615;29;20035;-59
2024/01/18 13:59:25;;;;;;;6.40;3.03;;;;;;;;;;4934133;29;20039;-57
2024/01/18 14:01:50;;;;;;;4.88;2.17;;;;;;;;;;4935021;29;20161;-59
2024/01/18 14:04:15;;;;;;;5.30;2.20;;;;;;;;;;4940724;29;20040;-59
2024/01/18 14:06:41;;;;;;;10.25;6.15;;;;;;;;;;4938954;29;20129;-59
2024/01/18 14:09:07;;;;;;;14.23;7.65;;;;;;;;;;4935940;29;20030;-60
2024/01/18 14:11:33;;;;;;;9.02;6.07;;;;;;;;;;4934482;29;20023;-58
2024/01/18 14:13:58;;;;;;;7.32;3.70;;;;;;;;;;4938911;29;20485;-58
2024/01/18 14:16:24;;;;;;;7.05;4.38;;;;;;;;;;4938976;29;21094;-58
2024/01/18 14:18:50;;;;;;;7.72;4.03;;;;;;;;;;4939963;29;20382;-57
2024/01/18 14:21:16;;;;;;;6.90;3.28;;;;;;;;;;4937874;29;20131;-58
2024/01/18 14:23:41;;;;;;;6.93;3.95;;;;;;;;;;4937172;29;20075;-58
2024/01/18 14:26:07;;;;;;;10.98;4.03;;;;;;;;;;4931900;29;20082;-60